Time,TemperatureF,DewpointF,PressureIn,WindDirection,WindDirectionDegrees,WindSpeedMPH,WindSpeedGustMPH,Humidity,HourlyPrecipIn,Conditions,Clouds,dailyrainin,SoftwareType,DateUTC
2013-11-29 00:01:00,42.5,40.6,30.03,NE,45,0.2,0.4,93,0.00,,,0.00,WUHU216HW,2013-11-29 08:01:00,
2013-11-29 00:06:00,42.5,40.6,30.03,NE,45,0.2,0.7,93,0.00,,,0.00,WUHU216HW,2013-11-29 08:06:00,
2013-11-29 00:11:00,42.7,40.8,30.04,NE,45,0.2,0.7,93,0.00,,,0.00,WUHU216HW,2013-11-29 08:11:00,
2013-11-29 00:16:00,42.7,40.8,30.04,NE,45,0.4,0.4,93,0.00,,,0.00,WUHU216HW,2013-11-29 08:16:00,
2013-11-29 00:21:00,42.7,40.8,30.04,NE,45,0.7,0.7,93,0.00,,,0.00,WUHU216HW,2013-11-29 08:21:00,
2013-11-29 00:26:00,42.5,40.6,30.04,NE,45,0.7,1.1,93,0.00,,,0.00,WUHU216HW,2013-11-29 08:26:00,
2013-11-29 00:31:00,42.5,40.6,30.04,NE,45,0.7,1.1,93,0.00,,,0.00,WUHU216HW,2013-11-29 08:31:00,
2013-11-29 00:36:00,42.5,40.6,30.04,NE,45,0.2,1.1,93,0.00,,,0.00,WUHU216HW,2013-11-29 08:36:00,
2013-11-29 00:41:00,42.5,40.6,30.04,NNE,23,0.4,1.1,93,0.00,,,0.00,WUHU216HW,2013-11-29 08:41:00,
2013-11-29 00:46:00,42.5,40.6,30.04,NNE,23,0.0,1.1,93,0.00,,,0.00,WUHU216HW,2013-11-29 08:46:00,
2013-11-29 00:51:00,42.7,40.8,30.05,NNE,23,0.9,0.9,93,0.00,,,0.00,WUHU216HW,2013-11-29 08:51:00,
2013-11-29 00:56:00,42.7,40.8,30.06,NNE,23,0.2,0.9,93,0.00,,,0.00,WUHU216HW,2013-11-29 08:56:00,
2013-11-29 01:01:00,42.7,40.8,30.05,NNE,23,0.0,0.7,93,0.00,,,0.00,WUHU216HW,2013-11-29 09:01:00,
2013-11-29 01:06:00,42.7,40.8,30.06,NNE,23,0.0,0.0,93,0.00,,,0.00,WUHU216HW,2013-11-29 09:06:00,
2013-11-29 01:11:00,42.8,41.0,30.06,NNE,23,0.0,0.0,93,0.00,,,0.00,WUHU216HW,2013-11-29 09:11:00,
2013-11-29 01:16:00,42.8,41.0,30.06,NNE,23,0.0,0.0,93,0.00,,,0.00,WUHU216HW,2013-11-29 09:16:00,
2013-11-29 01:21:00,42.8,41.0,30.05,NNE,23,0.0,0.0,93,0.00,,,0.00,WUHU216HW,2013-11-29 09:21:00,
2013-11-29 01:26:00,42.8,41.0,30.05,NNE,23,0.0,0.0,93,0.00,,,0.00,WUHU216HW,2013-11-29 09:26:00,
2013-11-29 01:31:00,42.8,41.0,30.05,NNE,23,0.0,0.2,93,0.00,,,0.00,WUHU216HW,2013-11-29 09:31:00,
2013-11-29 01:36:00,42.8,41.0,30.05,NNE,23,0.0,0.2,93,0.00,,,0.00,WUHU216HW,2013-11-29 09:36:00,
2013-11-29 01:41:00,43.0,41.1,30.05,NNE,23,0.0,0.0,93,0.00,,,0.00,WUHU216HW,2013-11-29 09:41:00,
2013-11-29 01:46:00,43.0,41.1,30.05,NNE,23,0.2,0.2,93,0.00,,,0.00,WUHU216HW,2013-11-29 09:46:00,
2013-11-29 01:51:00,43.0,41.1,30.05,NNE,23,0.0,0.2,93,0.00,,,0.00,WUHU216HW,2013-11-29 09:51:00,
2013-11-29 01:56:00,43.0,41.1,30.06,NNE,23,0.2,0.4,93,0.00,,,0.00,WUHU216HW,2013-11-29 09:56:00,
2013-11-29 02:01:00,43.0,41.1,30.06,ENE,68,0.4,1.3,93,0.00,,,0.00,WUHU216HW,2013-11-29 10:01:00,
2013-11-29 02:06:00,43.0,41.1,30.06,ENE,68,0.2,1.3,93,0.00,,,0.00,WUHU216HW,2013-11-29 10:06:00,
2013-11-29 02:11:00,43.2,41.3,30.06,North,0,0.4,1.3,93,0.00,,,0.00,WUHU216HW,2013-11-29 10:11:00,
2013-11-29 02:16:00,43.2,41.3,30.06,NNE,23,0.0,1.1,93,0.00,,,0.00,WUHU216HW,2013-11-29 10:16:00,
2013-11-29 02:21:00,43.4,41.5,30.06,NNE,23,0.4,1.1,93,0.00,,,0.00,WUHU216HW,2013-11-29 10:21:00,
2013-11-29 02:26:00,43.6,41.7,30.06,NNE,23,0.0,1.1,93,0.00,,,0.00,WUHU216HW,2013-11-29 10:26:00,
2013-11-29 02:31:00,43.6,41.7,30.06,NNE,23,0.4,0.7,93,0.00,,,0.00,WUHU216HW,2013-11-29 10:31:00,
2013-11-29 02:36:00,43.6,41.7,30.06,NNE,23,0.0,0.4,93,0.00,,,0.00,WUHU216HW,2013-11-29 10:36:00,
2013-11-29 02:41:00,43.6,41.7,30.06,NNE,23,0.0,0.4,93,0.00,,,0.00,WUHU216HW,2013-11-29 10:41:00,
2013-11-29 02:46:00,43.6,41.7,30.06,NNE,23,0.0,0.4,93,0.00,,,0.00,WUHU216HW,2013-11-29 10:46:00,
2013-11-29 02:51:00,43.6,41.7,30.06,NNE,23,0.0,0.0,93,0.00,,,0.00,WUHU216HW,2013-11-29 10:51:00,
2013-11-29 02:56:00,43.6,41.7,30.06,NNE,23,0.4,0.4,93,0.00,,,0.00,WUHU216HW,2013-11-29 10:56:00,
2013-11-29 03:01:00,43.6,41.7,30.06,NNE,23,0.4,0.9,93,0.00,,,0.00,WUHU216HW,2013-11-29 11:01:00,
2013-11-29 03:06:00,43.6,41.7,30.06,NNE,23,0.0,0.9,93,0.00,,,0.00,WUHU216HW,2013-11-29 11:06:00,
2013-11-29 03:11:00,43.6,41.7,30.06,NNE,23,0.0,0.4,93,0.00,,,0.00,WUHU216HW,2013-11-29 11:11:00,
2013-11-29 03:16:00,43.6,41.7,30.06,NNE,23,0.2,0.2,93,0.00,,,0.00,WUHU216HW,2013-11-29 11:16:00,
2013-11-29 03:21:00,43.6,41.7,30.06,NNE,23,0.0,0.2,93,0.00,,,0.00,WUHU216HW,2013-11-29 11:21:00,
2013-11-29 03:26:00,43.4,41.5,30.06,NNE,23,0.0,0.0,93,0.00,,,0.00,WUHU216HW,2013-11-29 11:26:00,
2013-11-29 03:31:00,43.2,41.3,30.06,NNE,23,0.4,0.4,93,0.00,,,0.00,WUHU216HW,2013-11-29 11:31:00,
2013-11-29 03:36:00,43.2,41.3,30.06,NNE,23,0.0,0.4,93,0.00,,,0.00,WUHU216HW,2013-11-29 11:36:00,
2013-11-29 03:41:00,43.0,41.1,30.06,NNE,23,0.0,0.0,93,0.00,,,0.00,WUHU216HW,2013-11-29 11:41:00,
2013-11-29 03:46:00,43.0,41.1,30.05,NNE,23,0.0,0.0,93,0.00,,,0.00,WUHU216HW,2013-11-29 11:46:00,
2013-11-29 03:51:00,43.0,41.1,30.06,NNE,23,0.0,0.7,93,0.00,,,0.00,WUHU216HW,2013-11-29 11:51:00,
2013-11-29 03:56:00,42.8,41.0,30.05,NNE,23,0.2,0.7,93,0.00,,,0.00,WUHU216HW,2013-11-29 11:56:00,
2013-11-29 04:01:00,42.8,41.0,30.06,NNE,23,0.0,0.4,93,0.00,,,0.00,WUHU216HW,2013-11-29 12:01:00,
2013-11-29 04:06:00,42.8,41.0,30.06,NNE,23,0.0,0.4,93,0.00,,,0.00,WUHU216HW,2013-11-29 12:06:00,
2013-11-29 04:11:00,42.8,41.0,30.06,NNE,23,0.4,0.4,93,0.00,,,0.00,WUHU216HW,2013-11-29 12:11:00,
2013-11-29 04:16:00,42.8,41.0,30.06,NNE,23,0.0,0.4,93,0.00,,,0.00,WUHU216HW,2013-11-29 12:16:00,
2013-11-29 04:21:00,42.8,41.0,30.06,NNE,23,0.0,0.2,93,0.00,,,0.00,WUHU216HW,2013-11-29 12:21:00,
2013-11-29 04:26:00,42.8,41.0,30.06,NNE,23,0.0,0.0,93,0.00,,,0.00,WUHU216HW,2013-11-29 12:26:00,
2013-11-29 04:31:00,43.0,41.1,30.06,NNE,23,0.0,0.0,93,0.00,,,0.00,WUHU216HW,2013-11-29 12:31:00,
2013-11-29 04:36:00,43.0,41.1,30.06,NNE,23,0.0,0.0,93,0.00,,,0.00,WUHU216HW,2013-11-29 12:36:00,
2013-11-29 04:41:00,43.0,41.1,30.06,NNE,23,0.0,0.0,93,0.00,,,0.00,WUHU216HW,2013-11-29 12:41:00,
2013-11-29 04:46:00,43.0,41.1,30.06,NNE,23,0.0,0.0,93,0.00,,,0.00,WUHU216HW,2013-11-29 12:46:00,
2013-11-29 04:51:00,43.0,41.1,30.06,NNE,23,0.4,0.7,93,0.00,,,0.00,WUHU216HW,2013-11-29 12:51:00,
2013-11-29 04:56:00,43.0,41.1,30.06,NNE,23,0.0,0.7,93,0.00,,,0.00,WUHU216HW,2013-11-29 12:56:00,
2013-11-29 05:01:00,43.0,41.1,30.06,NNE,23,0.4,0.9,93,0.00,,,0.00,WUHU216HW,2013-11-29 13:01:00,
2013-11-29 05:06:00,43.0,41.1,30.06,NNE,23,0.0,0.9,93,0.00,,,0.00,WUHU216HW,2013-11-29 13:06:00,
2013-11-29 05:11:00,43.0,41.1,30.06,NNE,23,0.0,0.0,93,0.00,,,0.00,WUHU216HW,2013-11-29 13:11:00,
2013-11-29 05:16:00,43.0,41.1,30.06,NNE,23,0.0,0.0,93,0.00,,,0.00,WUHU216HW,2013-11-29 13:16:00,
2013-11-29 05:21:00,43.0,41.1,30.06,NNE,23,0.0,0.0,93,0.00,,,0.00,WUHU216HW,2013-11-29 13:21:00,
2013-11-29 05:26:00,43.0,41.1,30.06,NNE,23,0.0,0.0,93,0.00,,,0.00,WUHU216HW,2013-11-29 13:26:00,
2013-11-29 05:31:00,43.0,41.1,30.06,NNE,23,0.2,0.2,93,0.00,,,0.00,WUHU216HW,2013-11-29 13:31:00,
2013-11-29 05:36:00,43.0,41.1,30.06,NNE,23,0.4,0.7,93,0.00,,,0.00,WUHU216HW,2013-11-29 13:36:00,
2013-11-29 05:41:00,42.8,41.0,30.06,NNE,23,0.7,1.1,93,0.00,,,0.00,WUHU216HW,2013-11-29 13:41:00,
2013-11-29 05:46:00,42.8,41.0,30.06,NNE,23,0.0,1.1,93,0.00,,,0.00,WUHU216HW,2013-11-29 13:46:00,
2013-11-29 05:51:00,43.0,41.1,30.06,NNE,23,0.2,0.4,93,0.00,,,0.00,WUHU216HW,2013-11-29 13:51:00,
2013-11-29 05:56:00,43.0,41.1,30.06,NNE,23,0.0,0.2,93,0.00,,,0.00,WUHU216HW,2013-11-29 13:56:00,
2013-11-29 06:01:00,43.0,41.1,30.06,NNE,23,0.0,0.0,93,0.00,,,0.00,WUHU216HW,2013-11-29 14:01:00,
2013-11-29 06:06:00,43.0,41.1,30.06,NNE,23,0.0,0.0,93,0.00,,,0.00,WUHU216HW,2013-11-29 14:06:00,
2013-11-29 06:11:00,43.0,41.1,30.06,NNE,23,0.0,0.0,93,0.00,,,0.00,WUHU216HW,2013-11-29 14:11:00,
2013-11-29 06:16:00,43.0,41.1,30.06,NNE,23,0.0,0.0,93,0.00,,,0.00,WUHU216HW,2013-11-29 14:16:00,
2013-11-29 06:21:00,43.0,41.1,30.06,NNE,23,0.0,0.4,93,0.00,,,0.00,WUHU216HW,2013-11-29 14:21:00,
2013-11-29 06:26:00,43.0,41.1,30.06,NNE,23,0.0,0.4,93,0.00,,,0.00,WUHU216HW,2013-11-29 14:26:00,
2013-11-29 06:31:00,43.0,41.1,30.07,NNE,23,0.7,0.7,93,0.00,,,0.00,WUHU216HW,2013-11-29 14:31:00,
2013-11-29 06:36:00,43.0,41.1,30.07,NNE,23,0.0,0.7,93,0.00,,,0.00,WUHU216HW,2013-11-29 14:36:00,
2013-11-29 06:41:00,43.0,41.1,30.07,NNE,23,0.0,0.4,93,0.00,,,0.00,WUHU216HW,2013-11-29 14:41:00,
2013-11-29 06:46:00,43.0,41.1,30.07,NNE,23,0.0,0.2,93,0.00,,,0.00,WUHU216HW,2013-11-29 14:46:00,
2013-11-29 06:51:00,43.2,41.3,30.07,NNE,23,0.4,0.4,93,0.00,,,0.00,WUHU216HW,2013-11-29 14:51:00,
2013-11-29 06:56:00,43.0,41.1,30.07,NNE,23,0.4,0.4,93,0.00,,,0.00,WUHU216HW,2013-11-29 14:56:00,
2013-11-29 07:01:00,43.2,41.3,30.08,NNE,23,0.0,0.4,93,0.00,,,0.00,WUHU216HW,2013-11-29 15:01:00,
2013-11-29 07:06:00,43.2,41.3,30.08,NNE,23,0.0,0.2,93,0.00,,,0.00,WUHU216HW,2013-11-29 15:06:00,
2013-11-29 07:11:00,43.2,41.3,30.08,NNE,23,0.0,0.0,93,0.00,,,0.00,WUHU216HW,2013-11-29 15:11:00,
2013-11-29 07:16:00,43.2,41.3,30.08,NNE,23,0.0,0.2,93,0.00,,,0.00,WUHU216HW,2013-11-29 15:16:00,
2013-11-29 07:21:00,43.2,41.3,30.07,NNE,23,0.4,0.7,93,0.00,,,0.00,WUHU216HW,2013-11-29 15:21:00,
2013-11-29 07:26:00,43.2,41.3,30.08,NNE,23,0.0,0.7,93,0.00,,,0.00,WUHU216HW,2013-11-29 15:26:00,
2013-11-29 07:31:00,43.2,41.3,30.08,NNE,23,0.0,0.4,93,0.00,,,0.00,WUHU216HW,2013-11-29 15:31:00,
2013-11-29 07:36:00,43.2,41.3,30.08,NNE,23,0.0,0.4,93,0.00,,,0.00,WUHU216HW,2013-11-29 15:36:00,
2013-11-29 07:41:00,43.2,41.3,30.08,NNE,23,0.0,0.2,93,0.00,,,0.00,WUHU216HW,2013-11-29 15:41:00,
2013-11-29 07:46:00,43.2,41.3,30.08,NNE,23,0.4,0.7,93,0.00,,,0.00,WUHU216HW,2013-11-29 15:46:00,
2013-11-29 07:51:00,43.0,41.1,30.09,NNE,23,0.0,0.7,93,0.00,,,0.00,WUHU216HW,2013-11-29 15:51:00,
2013-11-29 07:56:00,43.0,41.1,30.09,NNE,23,0.4,0.4,93,0.00,,,0.00,WUHU216HW,2013-11-29 15:56:00,
2013-11-29 08:01:00,43.0,41.1,30.10,NNE,23,0.0,0.7,93,0.00,,,0.00,WUHU216HW,2013-11-29 16:01:00,
2013-11-29 08:06:00,43.2,41.3,30.11,NNE,23,0.0,0.7,93,0.00,,,0.00,WUHU216HW,2013-11-29 16:06:00,
2013-11-29 08:11:00,43.2,41.3,30.10,NNE,23,0.0,0.2,93,0.00,,,0.00,WUHU216HW,2013-11-29 16:11:00,
2013-11-29 08:16:00,43.2,41.3,30.10,NNE,23,0.0,0.0,93,0.00,,,0.00,WUHU216HW,2013-11-29 16:16:00,
2013-11-29 08:21:00,43.4,41.5,30.10,NNE,23,0.0,0.4,93,0.00,,,0.00,WUHU216HW,2013-11-29 16:21:00,
2013-11-29 08:26:00,43.4,41.5,30.11,NNE,23,0.0,0.4,93,0.00,,,0.00,WUHU216HW,2013-11-29 16:26:00,
2013-11-29 08:31:00,43.6,41.7,30.11,NNE,23,0.0,0.0,93,0.00,,,0.00,WUHU216HW,2013-11-29 16:31:00,
2013-11-29 08:36:00,43.6,41.7,30.11,NNE,23,0.0,0.2,93,0.00,,,0.00,WUHU216HW,2013-11-29 16:36:00,
2013-11-29 08:41:00,43.6,41.7,30.11,NNE,23,0.0,0.4,93,0.00,,,0.00,WUHU216HW,2013-11-29 16:41:00,
2013-11-29 08:46:00,43.7,41.9,30.11,NNE,23,0.0,0.4,93,0.00,,,0.00,WUHU216HW,2013-11-29 16:46:00,
2013-11-29 08:51:00,43.7,41.9,30.11,NNE,23,0.0,0.2,93,0.00,,,0.00,WUHU216HW,2013-11-29 16:51:00,
2013-11-29 08:56:00,43.9,42.0,30.11,South,180,0.4,1.1,93,0.00,,,0.00,WUHU216HW,2013-11-29 16:56:00,
2013-11-29 09:01:00,43.9,42.0,30.11,South,180,0.0,1.1,93,0.00,,,0.00,WUHU216HW,2013-11-29 17:01:00,
2013-11-29 09:06:00,44.1,42.2,30.11,SSE,158,0.0,0.4,93,0.00,,,0.00,WUHU216HW,2013-11-29 17:06:00,
2013-11-29 09:11:00,44.1,42.2,30.11,ESE,113,1.1,1.1,93,0.00,,,0.00,WUHU216HW,2013-11-29 17:11:00,
2013-11-29 09:16:00,44.3,42.4,30.11,SE,135,0.4,1.1,93,0.00,,,0.00,WUHU216HW,2013-11-29 17:16:00,
2013-11-29 09:21:00,44.3,42.4,30.11,SSW,203,1.6,1.6,93,0.00,,,0.00,WUHU216HW,2013-11-29 17:21:00,
2013-11-29 09:26:00,44.5,42.3,30.11,SSW,203,0.4,1.6,92,0.00,,,0.00,WUHU216HW,2013-11-29 17:26:00,
2013-11-29 09:31:00,44.6,42.5,30.11,NNE,23,1.3,1.3,92,0.00,,,0.00,WUHU216HW,2013-11-29 17:31:00,
2013-11-29 09:36:00,44.6,42.5,30.11,SSE,158,0.0,1.3,92,0.00,,,0.00,WUHU216HW,2013-11-29 17:36:00,
2013-11-29 09:41:00,44.8,42.7,30.11,South,180,0.9,0.9,92,0.00,,,0.00,WUHU216HW,2013-11-29 17:41:00,
2013-11-29 09:46:00,45.0,42.8,30.11,SE,135,0.4,1.8,92,0.00,,,0.00,WUHU216HW,2013-11-29 17:46:00,
2013-11-29 09:51:00,45.2,43.0,30.11,SSW,203,2.0,2.0,92,0.00,,,0.00,WUHU216HW,2013-11-29 17:51:00,
2013-11-29 09:56:00,45.4,43.2,30.11,SSW,203,0.7,2.0,92,0.00,,,0.00,WUHU216HW,2013-11-29 17:56:00,
2013-11-29 10:01:00,45.4,43.2,30.12,WSW,248,0.4,1.3,92,0.00,,,0.00,WUHU216HW,2013-11-29 18:01:00,
2013-11-29 10:06:00,45.5,43.4,30.12,WNW,293,0.7,1.3,92,0.00,,,0.00,WUHU216HW,2013-11-29 18:06:00,
2013-11-29 10:11:00,45.7,43.6,30.12,SSW,203,0.7,1.6,92,0.00,,,0.00,WUHU216HW,2013-11-29 18:11:00,
2013-11-29 10:16:00,45.7,43.3,30.12,West,270,0.9,1.8,91,0.00,,,0.00,WUHU216HW,2013-11-29 18:16:00,
2013-11-29 10:21:00,45.9,43.7,30.12,SSW,203,1.8,2.0,92,0.00,,,0.00,WUHU216HW,2013-11-29 18:21:00,
2013-11-29 10:26:00,46.1,43.9,30.12,SW,225,2.5,2.5,92,0.00,,,0.00,WUHU216HW,2013-11-29 18:26:00,
2013-11-29 10:31:00,46.1,43.9,30.12,SSW,203,0.9,2.9,92,0.00,,,0.00,WUHU216HW,2013-11-29 18:31:00,
2013-11-29 10:36:00,46.4,44.3,30.12,South,180,1.6,2.9,92,0.00,,,0.00,WUHU216HW,2013-11-29 18:36:00,
2013-11-29 10:41:00,46.4,44.0,30.12,South,180,2.5,2.9,91,0.00,,,0.00,WUHU216HW,2013-11-29 18:41:00,
2013-11-29 10:46:00,46.6,44.2,30.12,SSW,203,1.1,2.9,91,0.00,,,0.00,WUHU216HW,2013-11-29 18:46:00,
2013-11-29 10:51:00,46.8,44.4,30.13,South,180,1.1,2.5,91,0.00,,,0.00,WUHU216HW,2013-11-29 18:51:00,
2013-11-29 10:56:00,46.8,44.4,30.12,South,180,1.6,1.8,91,0.00,,,0.00,WUHU216HW,2013-11-29 18:56:00,
2013-11-29 11:01:00,47.0,44.6,30.12,South,180,1.8,1.8,91,0.00,,,0.00,WUHU216HW,2013-11-29 19:01:00,
2013-11-29 11:06:00,47.2,44.7,30.12,South,180,1.1,4.0,91,0.00,,,0.00,WUHU216HW,2013-11-29 19:06:00,
2013-11-29 11:11:00,47.2,44.7,30.13,SW,225,1.1,4.0,91,0.00,,,0.00,WUHU216HW,2013-11-29 19:11:00,
2013-11-29 11:16:00,47.2,44.5,30.13,South,180,1.8,3.6,90,0.00,,,0.00,WUHU216HW,2013-11-29 19:16:00,
2013-11-29 11:21:00,47.3,44.6,30.12,South,180,1.6,3.6,90,0.00,,,0.00,WUHU216HW,2013-11-29 19:21:00,
2013-11-29 11:26:00,47.3,44.6,30.12,South,180,1.6,1.8,90,0.00,,,0.00,WUHU216HW,2013-11-29 19:26:00,
2013-11-29 11:31:00,47.3,44.6,30.13,South,180,0.4,1.6,90,0.00,,,0.00,WUHU216HW,2013-11-29 19:31:00,
2013-11-29 11:36:00,47.5,44.8,30.13,WNW,293,0.9,2.0,90,0.00,,,0.00,WUHU216HW,2013-11-29 19:36:00,
2013-11-29 11:41:00,47.7,45.0,30.12,South,180,2.2,2.7,90,0.00,,,0.00,WUHU216HW,2013-11-29 19:41:00,
2013-11-29 11:46:00,47.9,45.2,30.12,South,180,1.8,2.7,90,0.00,,,0.00,WUHU216HW,2013-11-29 19:46:00,
2013-11-29 11:51:00,47.9,45.2,30.13,SSW,203,2.7,2.7,90,0.00,,,0.00,WUHU216HW,2013-11-29 19:51:00,
2013-11-29 11:56:00,48.2,45.5,30.13,SSW,203,2.2,2.7,90,0.00,,,0.00,WUHU216HW,2013-11-29 19:56:00,
2013-11-29 12:01:00,48.2,45.2,30.13,SSW,203,1.8,2.2,89,0.00,,,0.00,WUHU216HW,2013-11-29 20:01:00,
2013-11-29 12:06:00,48.2,45.2,30.13,SSW,203,0.9,1.8,89,0.00,,,0.00,WUHU216HW,2013-11-29 20:06:00,
2013-11-29 12:11:00,48.2,45.2,30.13,South,180,3.1,3.4,89,0.00,,,0.00,WUHU216HW,2013-11-29 20:11:00,
2013-11-29 12:16:00,48.4,45.4,30.13,SSE,158,2.0,3.6,89,0.00,,,0.00,WUHU216HW,2013-11-29 20:16:00,
2013-11-29 12:21:00,48.4,45.4,30.13,SSW,203,1.1,3.6,89,0.00,,,0.00,WUHU216HW,2013-11-29 20:21:00,
2013-11-29 12:26:00,48.4,45.4,30.13,South,180,1.8,2.2,89,0.00,,,0.00,WUHU216HW,2013-11-29 20:26:00,
2013-11-29 12:31:00,48.4,45.4,30.13,South,180,1.1,2.2,89,0.00,,,0.00,WUHU216HW,2013-11-29 20:31:00,
2013-11-29 12:36:00,48.4,45.4,30.13,SSW,203,2.2,2.7,89,0.00,,,0.00,WUHU216HW,2013-11-29 20:36:00,
2013-11-29 12:41:00,48.4,45.4,30.12,SSW,203,1.3,2.7,89,0.00,,,0.00,WUHU216HW,2013-11-29 20:41:00,
2013-11-29 12:46:00,48.2,45.2,30.12,SSE,158,1.3,2.2,89,0.00,,,0.00,WUHU216HW,2013-11-29 20:46:00,
2013-11-29 12:51:00,48.2,45.2,30.12,South,180,1.3,2.2,89,0.00,,,0.00,WUHU216HW,2013-11-29 20:51:00,
2013-11-29 12:56:00,48.2,45.2,30.12,SW,225,1.6,2.2,89,0.00,,,0.00,WUHU216HW,2013-11-29 20:56:00,
2013-11-29 13:01:00,48.1,45.0,30.12,SSW,203,2.0,2.0,89,0.00,,,0.00,WUHU216HW,2013-11-29 21:01:00,
2013-11-29 13:06:00,48.1,45.0,30.12,SW,225,0.4,2.0,89,0.00,,,0.00,WUHU216HW,2013-11-29 21:06:00,
2013-11-29 13:11:00,48.1,45.0,30.12,SSE,158,0.7,1.6,89,0.00,,,0.00,WUHU216HW,2013-11-29 21:11:00,
2013-11-29 13:16:00,47.9,44.8,30.12,South,180,1.3,1.8,89,0.00,,,0.00,WUHU216HW,2013-11-29 21:16:00,
2013-11-29 13:21:00,47.9,44.8,30.11,SSE,158,0.9,1.8,89,0.00,,,0.00,WUHU216HW,2013-11-29 21:21:00,
2013-11-29 13:26:00,47.9,45.2,30.12,South,180,0.9,1.6,90,0.00,,,0.00,WUHU216HW,2013-11-29 21:26:00,
2013-11-29 13:31:00,47.9,45.2,30.11,SSE,158,1.1,1.6,90,0.00,,,0.00,WUHU216HW,2013-11-29 21:31:00,
2013-11-29 13:36:00,47.9,45.2,30.11,SSW,203,0.7,1.6,90,0.00,,,0.00,WUHU216HW,2013-11-29 21:36:00,
2013-11-29 13:41:00,47.9,45.2,30.11,SSW,203,0.0,1.1,90,0.00,,,0.00,WUHU216HW,2013-11-29 21:41:00,
2013-11-29 13:46:00,47.9,45.2,30.12,SSW,203,0.0,0.7,90,0.00,,,0.00,WUHU216HW,2013-11-29 21:46:00,
2013-11-29 13:51:00,47.9,45.2,30.12,SW,225,0.0,0.4,90,0.00,,,0.00,WUHU216HW,2013-11-29 21:51:00,
2013-11-29 13:56:00,47.9,45.2,30.13,SSW,203,0.4,0.7,90,0.00,,,0.00,WUHU216HW,2013-11-29 21:56:00,
2013-11-29 14:01:00,47.9,45.2,30.13,SE,135,0.4,0.7,90,0.00,,,0.00,WUHU216HW,2013-11-29 22:01:00,
2013-11-29 14:06:00,47.9,45.2,30.14,SE,135,0.0,0.4,90,0.00,,,0.00,WUHU216HW,2013-11-29 22:06:00,
2013-11-29 14:11:00,47.9,45.2,30.14,NNE,23,1.6,1.8,90,0.00,,,0.00,WUHU216HW,2013-11-29 22:11:00,
2013-11-29 14:16:00,47.7,45.0,30.13,North,0,1.6,2.5,90,0.00,,,0.00,WUHU216HW,2013-11-29 22:16:00,
2013-11-29 14:21:00,47.7,45.0,30.13,NE,45,0.0,2.5,90,0.00,,,0.00,WUHU216HW,2013-11-29 22:21:00,
2013-11-29 14:26:00,47.7,45.0,30.13,SSE,158,0.2,1.1,90,0.00,,,0.00,WUHU216HW,2013-11-29 22:26:00,
2013-11-29 14:31:00,47.7,45.0,30.13,SSE,158,0.2,1.8,90,0.00,,,0.00,WUHU216HW,2013-11-29 22:31:00,
2013-11-29 14:36:00,47.9,45.2,30.13,South,180,1.1,1.8,90,0.00,,,0.00,WUHU216HW,2013-11-29 22:36:00,
2013-11-29 14:41:00,47.9,45.2,30.13,South,180,1.1,1.6,90,0.00,,,0.00,WUHU216HW,2013-11-29 22:41:00,
2013-11-29 14:46:00,47.9,45.2,30.13,South,180,1.1,2.7,90,0.00,,,0.00,WUHU216HW,2013-11-29 22:46:00,
2013-11-29 14:51:00,47.9,45.2,30.13,SSW,203,0.4,2.7,90,0.00,,,0.00,WUHU216HW,2013-11-29 22:51:00,
2013-11-29 14:56:00,48.1,45.4,30.14,South,180,2.9,2.9,90,0.00,,,0.00,WUHU216HW,2013-11-29 22:56:00,
2013-11-29 15:01:00,48.2,45.5,30.14,SE,135,1.3,2.9,90,0.00,,,0.00,WUHU216HW,2013-11-29 23:01:00,
2013-11-29 15:06:00,48.2,45.5,30.14,SE,135,0.4,2.0,90,0.00,,,0.00,WUHU216HW,2013-11-29 23:06:00,
2013-11-29 15:11:00,48.2,45.5,30.14,SSW,203,1.3,3.1,90,0.00,,,0.00,WUHU216HW,2013-11-29 23:11:00,
2013-11-29 15:16:00,48.2,45.5,30.14,South,180,2.2,3.1,90,0.00,,,0.00,WUHU216HW,2013-11-29 23:16:00,
2013-11-29 15:21:00,48.2,45.5,30.14,SSE,158,0.7,3.1,90,0.00,,,0.00,WUHU216HW,2013-11-29 23:21:00,
2013-11-29 15:26:00,48.2,45.5,30.14,South,180,1.1,1.1,90,0.00,,,0.00,WUHU216HW,2013-11-29 23:26:00,
2013-11-29 15:31:00,48.2,45.5,30.15,SSW,203,1.8,2.0,90,0.00,,,0.00,WUHU216HW,2013-11-29 23:31:00,
2013-11-29 15:36:00,48.2,45.5,30.15,South,180,1.1,2.5,90,0.00,,,0.00,WUHU216HW,2013-11-29 23:36:00,
2013-11-29 15:41:00,48.2,45.5,30.15,South,180,1.8,2.5,90,0.00,,,0.00,WUHU216HW,2013-11-29 23:41:00,
2013-11-29 15:46:00,48.2,45.5,30.15,SSE,158,0.0,1.8,90,0.00,,,0.00,WUHU216HW,2013-11-29 23:46:00,
2013-11-29 15:51:00,48.2,45.5,30.15,SE,135,0.0,1.1,90,0.00,,,0.00,WUHU216HW,2013-11-29 23:51:00,
2013-11-29 15:56:00,48.1,45.4,30.15,SW,225,0.9,1.1,90,0.00,,,0.00,WUHU216HW,2013-11-29 23:56:00,
2013-11-29 16:01:00,48.1,45.4,30.14,East,90,0.0,1.1,90,0.00,,,0.00,WUHU216HW,2013-11-30 00:01:00,
2013-11-29 16:06:00,48.1,45.4,30.14,SSE,158,0.9,1.6,90,0.00,,,0.00,WUHU216HW,2013-11-30 00:06:00,
2013-11-29 16:11:00,48.1,45.4,30.14,SE,135,0.4,1.8,90,0.00,,,0.00,WUHU216HW,2013-11-30 00:11:00,
2013-11-29 16:16:00,47.9,45.2,30.14,SSW,203,0.4,1.8,90,0.00,,,0.00,WUHU216HW,2013-11-30 00:16:00,
2013-11-29 16:21:00,47.9,45.2,30.14,SE,135,0.4,1.1,90,0.00,,,0.00,WUHU216HW,2013-11-30 00:21:00,
2013-11-29 16:26:00,47.9,45.2,30.14,SSW,203,0.2,1.1,90,0.00,,,0.00,WUHU216HW,2013-11-30 00:26:00,
2013-11-29 16:31:00,47.9,45.2,30.14,SSE,158,0.4,1.1,90,0.00,,,0.00,WUHU216HW,2013-11-30 00:31:00,
2013-11-29 16:36:00,47.7,45.0,30.14,SSE,158,0.0,1.1,90,0.00,,,0.00,WUHU216HW,2013-11-30 00:36:00,
2013-11-29 16:41:00,47.7,45.0,30.14,SE,135,1.6,1.6,90,0.00,,,0.00,WUHU216HW,2013-11-30 00:41:00,
2013-11-29 16:46:00,47.5,44.8,30.15,SSW,203,1.1,1.8,90,0.00,,,0.00,WUHU216HW,2013-11-30 00:46:00,
2013-11-29 16:51:00,47.5,45.1,30.15,ESE,113,0.2,1.8,91,0.00,,,0.00,WUHU216HW,2013-11-30 00:51:00,
2013-11-29 16:56:00,47.5,45.1,30.15,SSE,158,1.1,1.6,91,0.00,,,0.00,WUHU216HW,2013-11-30 00:56:00,
2013-11-29 17:01:00,47.5,45.1,30.15,SSE,158,0.9,1.6,91,0.00,,,0.00,WUHU216HW,2013-11-30 01:01:00,
2013-11-29 17:06:00,47.5,45.1,30.15,SSE,158,0.7,1.1,91,0.00,,,0.00,WUHU216HW,2013-11-30 01:06:00,
2013-11-29 17:11:00,47.5,45.1,30.15,SSW,203,0.0,1.1,91,0.00,,,0.00,WUHU216HW,2013-11-30 01:11:00,
2013-11-29 17:16:00,47.5,45.1,30.16,SSW,203,0.0,1.1,91,0.00,,,0.00,WUHU216HW,2013-11-30 01:16:00,
2013-11-29 17:21:00,47.5,45.1,30.16,SSW,203,0.9,0.9,91,0.00,,,0.00,WUHU216HW,2013-11-30 01:21:00,
2013-11-29 17:26:00,47.5,45.1,30.16,SW,225,0.2,0.9,91,0.00,,,0.00,WUHU216HW,2013-11-30 01:26:00,
2013-11-29 17:31:00,47.5,45.1,30.16,WSW,248,0.0,1.1,91,0.00,,,0.00,WUHU216HW,2013-11-30 01:31:00,
2013-11-29 17:36:00,47.5,45.1,30.16,South,180,0.0,1.1,91,0.00,,,0.00,WUHU216HW,2013-11-30 01:36:00,
2013-11-29 17:41:00,47.7,45.3,30.16,South,180,0.4,0.9,91,0.00,,,0.00,WUHU216HW,2013-11-30 01:41:00,
2013-11-29 17:46:00,47.7,45.3,30.16,WSW,248,0.7,1.1,91,0.00,,,0.00,WUHU216HW,2013-11-30 01:46:00,
2013-11-29 17:51:00,47.5,45.1,30.16,South,180,0.2,2.0,91,0.00,,,0.00,WUHU216HW,2013-11-30 01:51:00,
2013-11-29 17:56:00,47.7,45.3,30.16,SSW,203,0.4,2.0,91,0.00,,,0.00,WUHU216HW,2013-11-30 01:56:00,
2013-11-29 18:01:00,47.5,45.1,30.16,SW,225,0.0,1.1,91,0.00,,,0.00,WUHU216HW,2013-11-30 02:01:00,
2013-11-29 18:06:00,47.5,45.1,30.16,SW,225,0.4,0.4,91,0.00,,,0.00,WUHU216HW,2013-11-30 02:06:00,
2013-11-29 18:11:00,47.5,45.1,30.16,SW,225,0.0,1.1,91,0.00,,,0.00,WUHU216HW,2013-11-30 02:11:00,
2013-11-29 18:16:00,47.5,45.1,30.16,SSW,203,1.1,1.6,91,0.00,,,0.00,WUHU216HW,2013-11-30 02:16:00,
2013-11-29 18:21:00,47.5,45.1,30.16,WSW,248,1.1,1.6,91,0.00,,,0.00,WUHU216HW,2013-11-30 02:21:00,
2013-11-29 18:26:00,47.5,45.1,30.16,WSW,248,0.0,1.1,91,0.00,,,0.00,WUHU216HW,2013-11-30 02:26:00,
2013-11-29 18:31:00,47.5,45.1,30.16,WSW,248,0.0,0.7,91,0.00,,,0.00,WUHU216HW,2013-11-30 02:31:00,
2013-11-29 18:36:00,47.5,45.1,30.16,WSW,248,0.0,0.7,91,0.00,,,0.00,WUHU216HW,2013-11-30 02:36:00,
2013-11-29 18:41:00,47.5,45.1,30.16,SSW,203,0.4,1.1,91,0.00,,,0.00,WUHU216HW,2013-11-30 02:41:00,
2013-11-29 18:46:00,47.7,45.3,30.16,SSW,203,0.0,1.1,91,0.00,,,0.00,WUHU216HW,2013-11-30 02:46:00,
2013-11-29 18:51:00,47.7,45.3,30.16,SSE,158,0.4,2.0,91,0.00,,,0.00,WUHU216HW,2013-11-30 02:51:00,
2013-11-29 18:56:00,47.7,45.3,30.16,SSE,158,0.4,2.0,91,0.00,,,0.00,WUHU216HW,2013-11-30 02:56:00,
2013-11-29 19:01:00,47.7,45.3,30.16,South,180,0.4,0.9,91,0.00,,,0.00,WUHU216HW,2013-11-30 03:01:00,
2013-11-29 19:06:00,47.7,45.3,30.16,WSW,248,0.4,0.9,91,0.00,,,0.00,WUHU216HW,2013-11-30 03:06:00,
2013-11-29 19:11:00,47.9,45.5,30.16,SSW,203,1.1,1.8,91,0.00,,,0.00,WUHU216HW,2013-11-30 03:11:00,
2013-11-29 19:16:00,47.9,45.5,30.17,SSW,203,0.9,1.8,91,0.00,,,0.00,WUHU216HW,2013-11-30 03:16:00,
2013-11-29 19:21:00,47.9,45.5,30.17,SW,225,0.7,1.8,91,0.00,,,0.00,WUHU216HW,2013-11-30 03:21:00,
2013-11-29 19:26:00,47.9,45.5,30.17,SSW,203,1.8,1.8,91,0.00,,,0.00,WUHU216HW,2013-11-30 03:26:00,
2013-11-29 19:31:00,47.9,45.5,30.17,West,270,1.1,2.5,91,0.00,,,0.00,WUHU216HW,2013-11-30 03:31:00,
2013-11-29 19:36:00,47.9,45.5,30.17,SSW,203,1.1,2.5,91,0.00,,,0.00,WUHU216HW,2013-11-30 03:36:00,
2013-11-29 19:41:00,47.9,45.5,30.17,South,180,0.9,2.0,91,0.00,,,0.00,WUHU216HW,2013-11-30 03:41:00,
2013-11-29 19:46:00,48.1,45.6,30.16,SSW,203,1.1,2.0,91,0.00,,,0.00,WUHU216HW,2013-11-30 03:46:00,
2013-11-29 19:51:00,48.1,45.6,30.17,SSW,203,0.2,1.8,91,0.00,,,0.00,WUHU216HW,2013-11-30 03:51:00,
2013-11-29 19:56:00,48.1,45.6,30.17,SSW,203,0.4,1.3,91,0.00,,,0.00,WUHU216HW,2013-11-30 03:56:00,
2013-11-29 20:01:00,48.1,45.6,30.17,West,270,1.8,1.8,91,0.00,,,0.00,WUHU216HW,2013-11-30 04:01:00,
2013-11-29 20:06:00,48.1,45.6,30.17,SSW,203,0.9,1.8,91,0.00,,,0.00,WUHU216HW,2013-11-30 04:06:00,
2013-11-29 20:11:00,48.1,45.6,30.17,South,180,1.1,1.8,91,0.00,,,0.00,WUHU216HW,2013-11-30 04:11:00,
2013-11-29 20:16:00,48.2,45.8,30.17,SSW,203,1.3,1.8,91,0.00,,,0.00,WUHU216HW,2013-11-30 04:16:00,
2013-11-29 20:21:00,48.2,45.8,30.17,SSE,158,3.4,3.4,91,0.00,,,0.00,WUHU216HW,2013-11-30 04:21:00,
2013-11-29 20:26:00,48.2,45.8,30.16,SSE,158,2.5,3.4,91,0.00,,,0.00,WUHU216HW,2013-11-30 04:26:00,
2013-11-29 20:31:00,48.2,45.8,30.16,SSW,203,1.8,2.5,91,0.00,,,0.00,WUHU216HW,2013-11-30 04:31:00,
2013-11-29 20:36:00,48.2,45.8,30.16,South,180,1.8,1.8,91,0.00,,,0.00,WUHU216HW,2013-11-30 04:36:00,
2013-11-29 20:41:00,48.2,45.8,30.16,South,180,4.0,4.0,91,0.00,,,0.00,WUHU216HW,2013-11-30 04:41:00,
2013-11-29 20:46:00,48.2,45.8,30.16,SSW,203,2.5,4.0,91,0.00,,,0.00,WUHU216HW,2013-11-30 04:46:00,
2013-11-29 20:51:00,48.2,45.8,30.17,SSE,158,3.4,3.4,91,0.00,,,0.00,WUHU216HW,2013-11-30 04:51:00,
2013-11-29 20:56:00,48.4,46.0,30.17,SSW,203,0.4,3.4,91,0.00,,,0.00,WUHU216HW,2013-11-30 04:56:00,
2013-11-29 21:01:00,48.4,46.0,30.17,SSE,158,2.9,3.1,91,0.00,,,0.00,WUHU216HW,2013-11-30 05:01:00,
2013-11-29 21:06:00,48.4,46.0,30.17,SSW,203,0.4,3.1,91,0.00,,,0.00,WUHU216HW,2013-11-30 05:06:00,
2013-11-29 21:11:00,48.4,46.0,30.17,SSW,203,0.9,1.8,91,0.00,,,0.00,WUHU216HW,2013-11-30 05:11:00,
2013-11-29 21:16:00,48.4,46.0,30.16,SSE,158,1.8,2.9,91,0.00,,,0.00,WUHU216HW,2013-11-30 05:16:00,
2013-11-29 21:21:00,48.4,46.0,30.16,South,180,1.8,4.0,91,0.00,,,0.00,WUHU216HW,2013-11-30 05:21:00,
2013-11-29 21:26:00,48.4,46.0,30.16,South,180,3.1,4.0,91,0.00,,,0.00,WUHU216HW,2013-11-30 05:26:00,
2013-11-29 21:31:00,48.4,46.0,30.16,SW,225,1.1,3.1,91,0.00,,,0.00,WUHU216HW,2013-11-30 05:31:00,
2013-11-29 21:36:00,48.4,46.0,30.16,SSE,158,2.7,2.7,91,0.00,,,0.00,WUHU216HW,2013-11-30 05:36:00,
2013-11-29 21:41:00,48.4,46.0,30.16,South,180,2.0,2.7,91,0.00,,,0.00,WUHU216HW,2013-11-30 05:41:00,
2013-11-29 21:46:00,48.4,46.0,30.16,South,180,1.3,2.5,91,0.00,,,0.00,WUHU216HW,2013-11-30 05:46:00,
2013-11-29 21:51:00,48.4,46.0,30.16,South,180,0.9,3.1,91,0.00,,,0.00,WUHU216HW,2013-11-30 05:51:00,
2013-11-29 21:56:00,48.4,46.0,30.16,SSE,158,1.6,3.1,91,0.00,,,0.00,WUHU216HW,2013-11-30 05:56:00,
2013-11-29 22:01:00,48.4,46.0,30.16,South,180,2.5,4.0,91,0.00,,,0.00,WUHU216HW,2013-11-30 06:01:00,
2013-11-29 22:06:00,48.4,46.0,30.15,SSE,158,1.8,4.0,91,0.00,,,0.00,WUHU216HW,2013-11-30 06:06:00,
2013-11-29 22:11:00,48.4,46.0,30.16,South,180,0.9,3.8,91,0.00,,,0.00,WUHU216HW,2013-11-30 06:11:00,
2013-11-29 22:16:00,48.2,45.8,30.16,South,180,1.8,3.8,91,0.00,,,0.00,WUHU216HW,2013-11-30 06:16:00,
2013-11-29 22:21:00,48.2,45.8,30.16,South,180,1.3,4.0,91,0.00,,,0.00,WUHU216HW,2013-11-30 06:21:00,
2013-11-29 22:26:00,48.2,45.8,30.16,South,180,3.4,4.0,91,0.00,,,0.00,WUHU216HW,2013-11-30 06:26:00,
2013-11-29 22:31:00,48.2,45.8,30.15,South,180,1.8,4.3,91,0.00,,,0.00,WUHU216HW,2013-11-30 06:31:00,
2013-11-29 22:36:00,48.2,45.8,30.16,SE,135,1.1,4.3,91,0.00,,,0.00,WUHU216HW,2013-11-30 06:36:00,
2013-11-29 22:41:00,48.2,45.8,30.16,SW,225,1.8,2.2,91,0.00,,,0.00,WUHU216HW,2013-11-30 06:41:00,
2013-11-29 22:46:00,48.2,45.8,30.16,South,180,0.9,1.8,91,0.00,,,0.00,WUHU216HW,2013-11-30 06:46:00,
2013-11-29 22:51:00,48.2,45.8,30.16,South,180,1.8,2.7,91,0.00,,,0.00,WUHU216HW,2013-11-30 06:51:00,
2013-11-29 22:56:00,48.2,45.8,30.16,South,180,2.2,2.7,91,0.00,,,0.00,WUHU216HW,2013-11-30 06:56:00,
2013-11-29 23:02:00,48.2,45.8,30.16,SSW,203,1.8,3.4,91,0.00,,,0.00,WUHU216HW,2013-11-30 07:02:00,
2013-11-29 23:07:00,48.2,45.8,30.16,SSW,203,2.2,3.4,91,0.00,,,0.00,WUHU216HW,2013-11-30 07:07:00,
2013-11-29 23:12:00,48.2,45.8,30.17,SSW,203,2.5,3.4,91,0.00,,,0.00,WUHU216HW,2013-11-30 07:12:00,
2013-11-29 23:17:00,48.2,45.8,30.17,South,180,1.1,3.4,91,0.00,,,0.00,WUHU216HW,2013-11-30 07:17:00,
2013-11-29 23:22:00,48.2,45.8,30.17,South,180,2.0,2.7,91,0.00,,,0.00,WUHU216HW,2013-11-30 07:22:00,
2013-11-29 23:27:00,48.2,45.8,30.17,SSE,158,3.6,3.8,91,0.00,,,0.00,WUHU216HW,2013-11-30 07:27:00,
2013-11-29 23:32:00,48.2,45.8,30.17,SSE,158,1.6,3.8,91,0.00,,,0.00,WUHU216HW,2013-11-30 07:32:00,
2013-11-29 23:37:00,48.2,45.8,30.17,South,180,1.1,2.5,91,0.00,,,0.00,WUHU216HW,2013-11-30 07:37:00,
2013-11-29 23:42:00,48.2,45.8,30.17,ESE,113,0.9,2.5,91,0.00,,,0.00,WUHU216HW,2013-11-30 07:42:00,
2013-11-29 23:47:00,48.2,45.8,30.17,South,180,1.3,2.9,91,0.00,,,0.00,WUHU216HW,2013-11-30 07:47:00,
2013-11-29 23:52:00,48.2,45.5,30.17,South,180,1.3,2.9,90,0.00,,,0.00,WUHU216HW,2013-11-30 07:52:00,
2013-11-29 23:57:00,48.2,45.5,30.17,South,180,1.6,2.5,90,0.00,,,0.00,WUHU216HW,2013-11-30 07:57:00,